Time;durP1;ratioP1;P1;durP2;ratioP2;P2;SDS_P1;SDS_P2;PMS_P1;PMS_P2;Temp;Humidity;BMP_temperature;BMP_pressure;BME280_temperature;BME280_humidity;BME280_pressure;Samples;Min_cycle;Max_cycle;Signal;HPM_P1;HPM_P2
2022/03/16 00:01:19;;;;;;;;;;;;;;;4.35;100.00;102356.25;5247982;28;19912;-54
2022/03/16 00:03:49;;;;;;;;;;;;;;;4.33;100.00;102360.97;5246297;28;19913;-54
2022/03/16 00:06:20;;;;;;;;;;;;;;;4.33;100.00;102355.63;5246733;28;19912;-59
2022/03/16 00:08:50;;;;;;;;;;;;;;;4.36;100.00;102360.59;5246881;28;19912;-56
2022/03/16 00:11:20;;;;;;;;;;;;;;;4.32;100.00;102362.81;5246624;28;19917;-56
2022/03/16 00:13:51;;;;;;;;;;;;;;;4.32;100.00;102353.97;5247438;28;20364;-55
2022/03/16 00:16:21;;;;;;;;;;;;;;;4.32;100.00;102353.97;5245660;28;20253;-55
2022/03/16 00:18:51;;;;;;;;;;;;;;;4.33;100.00;102351.06;5246541;28;19913;-54
2022/03/16 00:21:21;;;;;;;;;;;;;;;4.31;100.00;102354.97;5246486;28;20333;-54
2022/03/16 00:23:52;;;;;;;;;;;;;;;4.29;100.00;102365.00;5246129;28;19959;-56
2022/03/16 00:26:22;;;;;;;;;;;;;;;4.28;100.00;102355.31;5246352;28;19939;-55
2022/03/16 00:28:52;;;;;;;;;;;;;;;4.29;100.00;102356.97;5246464;28;19912;-54
2022/03/16 00:31:23;;;;;;;;;;;;;;;4.28;100.00;102360.66;5247447;28;20300;-54
2022/03/16 00:33:53;;;;;;;;;;;;;;;4.27;100.00;102362.50;5246092;28;19913;-60
2022/03/16 00:36:23;;;;;;;;;;;;;;;4.26;100.00;102360.84;5246400;28;19958;-59
2022/03/16 00:38:54;;;;;;;;;;;;;;;4.24;100.00;102357.50;5246297;28;19944;-56
2022/03/16 00:41:24;;;;;;;;;;;;;;;4.23;100.00;102357.69;5245914;28;19913;-56
2022/03/16 00:43:54;;;;;;;;;;;;;;;4.21;100.00;102343.66;5245529;28;19916;-56
2022/03/16 00:46:25;;;;;;;;;;;;;;;4.22;100.00;102346.16;5245954;28;19913;-56
2022/03/16 00:48:55;;;;;;;;;;;;;;;4.23;100.00;102337.13;5245867;28;20276;-54
2022/03/16 00:51:25;;;;;;;;;;;;;;;4.23;100.00;102333.63;5245770;28;19916;-56
2022/03/16 00:53:56;;;;;;;;;;;;;;;4.23;100.00;102331.78;5245636;28;19916;-54
2022/03/16 00:56:26;;;;;;;;;;;;;;;4.20;100.00;102332.13;5245687;28;19913;-54
2022/03/16 00:58:56;;;;;;;;;;;;;;;4.20;100.00;102336.66;5265343;28;20351;-59
2022/03/16 01:01:27;;;;;;;;;;;;;;;4.18;100.00;102336.00;5249671;28;19918;-57
2022/03/16 01:03:57;;;;;;;;;;;;;;;4.14;100.00;102326.66;5249585;28;19922;-56
2022/03/16 01:06:27;;;;;;;;;;;;;;;4.12;100.00;102331.34;5249779;28;19973;-54
2022/03/16 01:08:58;;;;;;;;;;;;;;;4.08;100.00;102321.00;5249803;28;20346;-54
2022/03/16 01:11:28;;;;;;;;;;;;;;;4.05;100.00;102324.03;5249634;28;19922;-54
2022/03/16 01:13:59;;;;;;;;;;;;;;;4.02;100.00;102327.09;5249651;28;19935;-54
2022/03/16 01:16:30;;;;;;;;;;;;;;;3.99;100.00;102327.44;5249747;28;20003;-53
2022/03/16 01:19:00;;;;;;;;;;;;;;;3.95;100.00;102318.09;5249291;28;19916;-57
2022/03/16 01:21:30;;;;;;;;;;;;;;;3.89;100.00;102326.81;5249475;28;19912;-56
2022/03/16 01:24:01;;;;;;;;;;;;;;;3.85;100.00;102322.00;5249419;28;19919;-53
2022/03/16 01:26:31;;;;;;;;;;;;;;;3.82;100.00;102325.84;5249494;28;19916;-53
2022/03/16 01:29:01;;;;;;;;;;;;;;;3.79;100.00;102328.88;5253274;28;20012;-53
2022/03/16 01:31:32;;;;;;;;;;;;;;;3.72;100.00;102327.94;5253509;28;19938;-54
2022/03/16 01:34:02;;;;;;;;;;;;;;;3.72;100.00;102327.94;5253299;28;19919;-53
2022/03/16 01:36:33;;;;;;;;;;;;;;;3.69;100.00;102321.09;5253601;28;19963;-56
2022/03/16 01:39:04;;;;;;;;;;;;;;;3.65;100.00;102321.63;5253856;28;19962;-55
2022/03/16 01:41:35;;;;;;;;;;;;;;;3.64;100.00;102322.63;5271466;28;19912;-53
2022/03/16 01:44:06;;;;;;;;;;;;;;;3.60;100.00;102322.13;5253379;28;19964;-53
2022/03/16 01:46:36;;;;;;;;;;;;;;;3.58;100.00;102320.63;5253794;28;19951;-53
2022/03/16 01:49:06;;;;;;;;;;;;;;;3.59;100.00;102323.13;5271765;28;19965;-53
2022/03/16 01:51:37;;;;;;;;;;;;;;;3.57;100.00;102321.66;5253304;28;20057;-53
2022/03/16 01:54:07;;;;;;;;;;;;;;;3.54;100.00;102314.81;5252927;28;19912;-53
2022/03/16 01:56:37;;;;;;;;;;;;;;;3.55;100.00;102318.31;5253375;28;19923;-54
2022/03/16 01:59:09;;;;;;;;;;;;;;;3.54;100.00;102309.47;5249306;28;20007;-57
2022/03/16 02:01:40;;;;;;;;;;;;;;;3.53;100.00;102317.66;5249069;28;20334;-53
2022/03/16 02:04:10;;;;;;;;;;;;;;;3.52;100.00;102318.66;5248550;28;20062;-57
2022/03/16 02:06:40;;;;;;;;;;;;;;;3.48;100.00;102320.84;5248975;28;19913;-58
2022/03/16 02:09:11;;;;;;;;;;;;;;;3.47;100.00;102321.00;5249001;28;19927;-55
2022/03/16 02:11:41;;;;;;;;;;;;;;;3.46;100.00;102320.22;5248884;28;19923;-53
2022/03/16 02:14:12;;;;;;;;;;;;;;;3.43;100.00;102314.38;5248514;28;20087;-53
2022/03/16 02:16:42;;;;;;;;;;;;;;;3.40;100.00;102323.56;5248854;28;20328;-54
2022/03/16 02:19:12;;;;;;;;;;;;;;;3.38;100.00;102321.06;5250624;28;20368;-53
2022/03/16 02:21:46;;;;;;;;;;;;;;;3.33;100.00;102315.41;5248864;28;19951;-53
2022/03/16 02:24:16;;;;;;;;;;;;;;;3.30;100.00;102312.25;5248452;28;20441;-54
2022/03/16 02:26:47;;;;;;;;;;;;;;;3.30;100.00;102310.41;5248690;28;19917;-53
2022/03/16 02:29:17;;;;;;;;;;;;;;;3.27;100.00;102310.75;5248643;28;19921;-54
2022/03/16 02:31:47;;;;;;;;;;;;;;;3.21;100.00;102303.41;5248677;28;20011;-53
2022/03/16 02:34:18;;;;;;;;;;;;;;;3.17;100.00;102307.47;5248270;28;19962;-58
2022/03/16 02:36:48;;;;;;;;;;;;;;;3.18;100.00;102313.59;5248634;28;19912;-56
2022/03/16 02:39:19;;;;;;;;;;;;;;;3.16;100.00;102302.31;5246990;28;19912;-55
2022/03/16 02:41:50;;;;;;;;;;;;;;;3.11;100.00;102318.81;5248395;28;19919;-53
2022/03/16 02:44:21;;;;;;;;;;;;;;;3.08;100.00;102313.81;5248122;28;19913;-56
2022/03/16 02:46:51;;;;;;;;;;;;;;;3.06;100.00;102299.81;5248482;28;19946;-55
2022/03/16 02:49:22;;;;;;;;;;;;;;;3.07;100.00;102297.97;5248496;28;19963;-53
2022/03/16 02:51:52;;;;;;;;;;;;;;;3.09;100.00;102294.13;5248192;28;19916;-54
2022/03/16 02:54:23;;;;;;;;;;;;;;;3.10;100.00;102294.97;5247638;28;19913;-54
2022/03/16 02:59:30;;;;;;;;;;;;;;;3.10;100.00;102303.81;5318615;22;19923;-81
2022/03/16 03:02:00;;;;;;;;;;;;;;;3.08;100.00;102300.47;5296051;28;19915;-80
2022/03/16 03:04:30;;;;;;;;;;;;;;;3.04;100.00;102296.47;5299306;27;19933;-81
2022/03/16 03:07:01;;;;;;;;;;;;;;;3.01;100.00;102296.81;5324587;27;19922;-83
2022/03/16 03:09:31;;;;;;;;;;;;;;;2.98;100.00;102291.81;5309713;27;19934;-83
2022/03/16 03:12:02;;;;;;;;;;;;;;;2.97;100.00;102287.50;5328926;27;19915;-82
2022/03/16 03:14:33;;;;;;;;;;;;;;;2.96;100.00;102285.81;5310330;27;19912;-82
2022/03/16 03:17:03;;;;;;;;;;;;;;;2.94;100.00;102282.50;5311188;27;20022;-82
2022/03/16 03:19:34;;;;;;;;;;;;;;;2.92;100.00;102282.66;5310353;27;20378;-82
2022/03/16 03:22:05;;;;;;;;;;;;;;;2.89;100.00;102288.34;5329761;27;19911;-82
2022/03/16 03:24:35;;;;;;;;;;;;;;;2.84;100.00;102280.03;5310170;27;19923;-84
2022/03/16 03:27:06;;;;;;;;;;;;;;;2.87;100.00;102286.88;5309833;27;19912;-82
2022/03/16 03:29:36;;;;;;;;;;;;;;;2.83;100.00;102282.88;5310068;27;19937;-82
2022/03/16 03:32:07;;;;;;;;;;;;;;;2.80;100.00;102288.53;5327899;27;20397;-83
2022/03/16 03:34:37;;;;;;;;;;;;;;;2.78;100.00;102291.38;5306466;27;19912;-82
2022/03/16 03:37:07;;;;;;;;;;;;;;;2.75;100.00;102289.06;5305513;27;19933;-83
2022/03/16 03:39:38;;;;;;;;;;;;;;;2.71;100.00;102279.72;5312275;27;19912;-83
2022/03/16 03:42:08;;;;;;;;;;;;;;;2.71;100.00;102277.88;5314174;27;19942;-84
2022/03/16 03:44:39;;;;;;;;;;;;;;;2.75;100.00;102280.22;5313570;27;19912;-82
2022/03/16 03:47:09;;;;;;;;;;;;;;;2.74;100.00;102274.03;5313667;27;19918;-83
2022/03/16 03:49:41;;;;;;;;;;;;;;;2.71;100.00;102285.88;5331795;27;19935;-83
2022/03/16 03:52:11;;;;;;;;;;;;;;;2.67;100.00;102276.56;5313469;27;19936;-83
2022/03/16 03:54:41;;;;;;;;;;;;;;;2.66;100.00;102287.38;5313702;27;20123;-82
2022/03/16 03:57:12;;;;;;;;;;;;;;;2.64;100.00;102289.38;5308890;27;20336;-82
2022/03/16 03:59:43;;;;;;;;;;;;;;;2.60;100.00;102280.09;5321905;27;19915;-81
2022/03/16 04:02:14;;;;;;;;;;;;;;;2.58;100.00;102292.75;5303222;27;19966;-82
2022/03/16 04:04:44;;;;;;;;;;;;;;;2.54;100.00;102286.91;5302911;27;19918;-82
2022/03/16 04:07:14;;;;;;;;;;;;;;;2.50;100.00;102284.75;5309464;27;19911;-82
2022/03/16 04:09:46;;;;;;;;;;;;;;;2.48;100.00;102295.59;5313261;27;20005;-82
2022/03/16 04:12:18;;;;;;;;;;;;;;;2.53;100.00;102282.59;5313777;27;19911;-81
2022/03/16 04:14:48;;;;;;;;;;;;;;;2.54;100.00;102283.41;5305505;27;19918;-83
2022/03/16 04:17:18;;;;;;;;;;;;;;;2.55;100.00;102285.09;5301506;27;19912;-83
2022/03/16 04:19:48;;;;;;;;;;;;;;;2.56;100.00;102290.25;5331552;27;19912;-82
2022/03/16 04:22:19;;;;;;;;;;;;;;;2.53;100.00;102287.09;5332427;27;19915;-82
2022/03/16 04:24:49;;;;;;;;;;;;;;;2.55;100.00;102280.59;5331835;27;19915;-83
2022/03/16 04:27:20;;;;;;;;;;;;;;;2.58;100.00;102280.25;5314418;27;19915;-82
2022/03/16 04:29:50;;;;;;;;;;;;;;;2.56;100.00;102281.41;5310625;27;19978;-82
2022/03/16 04:32:21;;;;;;;;;;;;;;;2.55;100.00;102267.25;5313173;27;19911;-83
2022/03/16 04:34:52;;;;;;;;;;;;;;;2.55;100.00;102264.59;5313121;27;19922;-83
2022/03/16 04:37:22;;;;;;;;;;;;;;;2.54;100.00;102272.75;5314089;27;19926;-80
2022/03/16 04:39:52;;;;;;;;;;;;;;;2.51;100.00;102271.25;5313067;27;19946;-82
2022/03/16 04:42:22;;;;;;;;;;;;;;;2.51;100.00;102251.75;5313408;27;19929;-83
2022/03/16 04:44:53;;;;;;;;;;;;;;;2.53;100.00;102257.75;5330901;27;19999;-82
2022/03/16 04:47:23;;;;;;;;;;;;;;;2.51;100.00;102257.91;5312689;27;20350;-83
2022/03/16 04:49:53;;;;;;;;;;;;;;;2.52;100.00;102253.44;5315265;27;19938;-83
2022/03/16 04:52:25;;;;;;;;;;;;;;;2.51;100.00;102259.75;5311552;27;19944;-82
2022/03/16 04:54:55;;;;;;;;;;;;;;;2.52;100.00;102258.75;5313759;27;19978;-82
2022/03/16 04:57:26;;;;;;;;;;;;;;;2.55;100.00;102261.09;5314401;27;19927;-81
2022/03/16 04:59:56;;;;;;;;;;;;;;;2.55;100.00;102263.75;5311399;27;19947;-81
2022/03/16 05:02:26;;;;;;;;;;;;;;;2.56;100.00;102271.59;5309554;27;19922;-81
2022/03/16 05:04:56;;;;;;;;;;;;;;;2.63;100.00;102264.56;5304464;27;19919;-82
2022/03/16 05:07:28;;;;;;;;;;;;;;;2.66;100.00;102272.22;5303904;27;19911;-83
2022/03/16 05:09:58;;;;;;;;;;;;;;;2.68;100.00;102269.38;5302445;28;19916;-83
2022/03/16 05:12:35;;;;;;;;;;;;;;;2.30;100.00;102212.31;5323921;27;19911;-83
2022/03/16 05:15:06;;;;;;;;;;;;;;;2.71;100.00;102269.88;5307339;27;19946;-82
2022/03/16 05:17:37;;;;;;;;;;;;;;;2.75;100.00;102270.38;5326187;27;19954;-82
2022/03/16 05:20:08;;;;;;;;;;;;;;;2.77;100.00;102279.03;5314617;27;19919;-81
2022/03/16 05:22:45;;;;;;;;;;;;;;;2.80;100.00;102283.22;5315460;27;19970;-82
2022/03/16 05:25:16;;;;;;;;;;;;;;;2.85;100.00;102284.38;5314925;28;19926;-81
2022/03/16 05:27:47;;;;;;;;;;;;;;;2.88;100.00;102286.69;5315285;28;19911;-83
2022/03/16 05:30:20;;;;;;;;;;;;;;;2.94;100.00;102285.16;5332542;28;19926;-82
2022/03/16 05:32:51;;;;;;;;;;;;;;;2.98;100.00;102283.81;5320508;28;19917;-83
2022/03/16 05:35:21;;;;;;;;;;;;;;;3.01;100.00;102275.47;5318148;28;19958;-83
2022/03/16 05:37:52;;;;;;;;;;;;;;;3.06;100.00;102278.47;5300535;28;19911;-84
2022/03/16 05:40:22;;;;;;;;;;;;;;;3.09;100.00;102275.47;5319076;28;19916;-83
2022/03/16 05:42:53;;;;;;;;;;;;;;;3.15;100.00;102276.63;5318337;28;19947;-83
2022/03/16 05:45:23;;;;;;;;;;;;;;;3.18;100.00;102263.72;5318289;28;19929;-82
2022/03/16 05:47:53;;;;;;;;;;;;;;;3.20;100.00;102264.38;5318591;28;19911;-82
2022/03/16 05:50:28;;;;;;;;;;;;;;;3.21;100.00;102260.72;5302530;28;20392;-83
2022/03/16 05:52:59;;;;;;;;;;;;;;;3.23;100.00;102256.03;5290938;28;19919;-82
2022/03/16 05:55:29;;;;;;;;;;;;;;;3.24;100.00;102249.69;5279089;28;19912;-83
2022/03/16 05:57:59;;;;;;;;;;;;;;;3.24;100.00;102241.69;5298658;28;19939;-83
2022/03/16 06:00:31;;;;;;;;;;;;;;;3.26;100.00;102245.00;5297510;28;19912;-83
2022/03/16 06:03:02;;;;;;;;;;;;;;;3.31;100.00;102253.34;5278707;28;20423;-83
2022/03/16 06:05:32;;;;;;;;;;;;;;;3.35;100.00;102256.50;5281634;28;19917;-83
2022/03/16 06:08:02;;;;;;;;;;;;;;;3.38;100.00;102259.66;5307191;28;19922;-82
2022/03/16 06:10:33;;;;;;;;;;;;;;;3.44;100.00;102255.47;5307294;28;19916;-82
2022/03/16 06:13:04;;;;;;;;;;;;;;;3.46;100.00;102248.09;5307283;28;19920;-84
2022/03/16 06:15:41;;;;;;;;;;;;;;;3.47;100.00;102254.25;5282679;28;19912;-83
2022/03/16 06:18:12;;;;;;;;;;;;;;;3.49;100.00;102254.91;5300860;28;19912;-83
2022/03/16 06:20:46;;;;;;;;;;;;;;;3.50;100.00;102249.38;5281386;28;19916;-83
2022/03/16 06:23:16;;;;;;;;;;;;;;;3.52;100.00;102252.72;5282263;28;19911;-83
2022/03/16 06:25:47;;;;;;;;;;;;;;;3.57;100.00;102268.22;5282439;28;19922;-84
2022/03/16 06:28:17;;;;;;;;;;;;;;;3.61;100.00;102256.19;5301027;28;19947;-83
2022/03/16 06:30:47;;;;;;;;;;;;;;;3.64;100.00;102250.50;5298135;28;19916;-83
2022/03/16 06:33:17;;;;;;;;;;;;;;;3.67;100.00;102256.31;5281233;28;19919;-83
2022/03/16 06:35:48;;;;;;;;;;;;;;;3.72;100.00;102247.78;5282373;28;19912;-83
2022/03/16 06:38:18;;;;;;;;;;;;;;;3.77;100.00;102250.72;5282532;28;19911;-83
2022/03/16 06:40:48;;;;;;;;;;;;;;;3.80;100.00;102247.72;5282049;28;19911;-83
2022/03/16 06:43:21;;;;;;;;;;;;;;;3.84;100.00;102248.19;5300694;28;19984;-83
2022/03/16 06:45:53;;;;;;;;;;;;;;;3.90;100.00;102244.81;5297944;28;20380;-83
2022/03/16 06:48:24;;;;;;;;;;;;;;;3.96;100.00;102249.44;5300275;28;19959;-83
2022/03/16 06:50:55;;;;;;;;;;;;;;;4.03;100.00;102250.41;5281784;28;19985;-83
2022/03/16 06:53:25;;;;;;;;;;;;;;;4.06;100.00;102248.19;5281474;28;19912;-83
2022/03/16 06:55:55;;;;;;;;;;;;;;;4.12;100.00;102243.97;5300042;28;19979;-83
2022/03/16 06:58:25;;;;;;;;;;;;;;;4.14;100.00;102255.31;5281117;28;20014;-83
2022/03/16 07:00:56;;;;;;;;;;;;;;;4.14;100.00;102243.78;5306443;27;20322;-84
2022/03/16 07:03:26;;;;;;;;;;;;;;;4.12;100.00;102245.81;5321314;27;20336;-82
2022/03/16 07:05:56;;;;;;;;;;;;;;;4.08;100.00;102248.84;5302503;27;19943;-83
2022/03/16 07:08:27;;;;;;;;;;;;;;;4.07;100.00;102246.34;5302967;27;19922;-83
2022/03/16 07:10:57;;;;;;;;;;;;;;;4.06;100.00;102253.53;5321306;27;19915;-83
2022/03/16 07:13:27;;;;;;;;;;;;;;;4.07;100.00;102241.00;5302196;27;19917;-83
2022/03/16 07:15:57;;;;;;;;;;;;;;;4.08;100.00;102248.84;5321887;27;19911;-83
2022/03/16 07:18:28;;;;;;;;;;;;;;;4.11;100.00;102244.97;5321309;27;19911;-83
2022/03/16 07:20:58;;;;;;;;;;;;;;;4.14;100.00;102247.28;5321223;27;19912;-83
2022/03/16 07:23:29;;;;;;;;;;;;;;;4.19;100.00;102246.75;5302603;27;19918;-84
2022/03/16 07:25:59;;;;;;;;;;;;;;;4.23;100.00;102250.72;5302316;27;19950;-83
2022/03/16 07:28:29;;;;;;;;;;;;;;;4.29;100.00;102244.69;5302882;27;19912;-84
2022/03/16 07:31:00;;;;;;;;;;;;;;;4.36;100.00;102242.91;5321029;27;19915;-83
2022/03/16 07:33:30;;;;;;;;;;;;;;;4.42;100.00;102244.88;5301614;27;19933;-84
2022/03/16 07:36:01;;;;;;;;;;;;;;;4.48;100.00;102244.16;5302733;27;19911;-83
2022/03/16 07:38:32;;;;;;;;;;;;;;;4.57;100.00;102251.09;5302624;27;19969;-83
2022/03/16 07:41:02;;;;;;;;;;;;;;;4.66;100.00;102258.00;5320463;27;19911;-83
2022/03/16 07:43:33;;;;;;;;;;;;;;;4.75;100.00;102256.09;5301684;27;19922;-85
2022/03/16 07:46:03;;;;;;;;;;;;;;;4.81;100.00;102252.69;5302106;27;19915;-83
2022/03/16 07:48:38;;;;;;;;;;;;;;;4.87;100.00;102241.25;5301981;27;19928;-83
2022/03/16 07:51:09;;;;;;;;;;;;;;;4.97;100.00;102246.31;5301555;27;20369;-83
2022/03/16 07:53:39;;;;;;;;;;;;;;;5.08;100.00;102246.69;5319841;27;19911;-83
2022/03/16 07:56:09;;;;;;;;;;;;;;;5.16;100.00;102242.25;5302043;27;19915;-83
2022/03/16 07:58:41;;;;;;;;;;;;;;;5.22;100.00;102244.97;5319537;27;19923;-83
2022/03/16 08:01:11;;;;;;;;;;;;;;;5.26;100.00;102243.59;5300879;27;19947;-83
2022/03/16 08:03:41;;;;;;;;;;;;;;;5.34;100.00;102246.19;5300906;27;19923;-83
2022/03/16 08:06:12;;;;;;;;;;;;;;;5.43;100.00;102241.56;5320376;27;19956;-85
2022/03/16 08:08:42;;;;;;;;;;;;;;;5.50;100.00;102250.47;5301354;27;19912;-86
2022/03/16 08:11:12;;;;;;;;;;;;;;;5.58;100.00;102245.00;5298005;27;19950;-85
2022/03/16 08:13:43;;;;;;;;;;;;;;;5.69;100.00;102244.53;5303334;27;19922;-83
2022/03/16 08:16:13;;;;;;;;;;;;;;;5.80;100.00;102251.22;5307111;27;19915;-84
2022/03/16 08:18:43;;;;;;;;;;;;;;;5.89;100.00;102243.91;5319785;27;20007;-84
2022/03/16 08:21:13;;;;;;;;;;;;;;;5.99;100.00;102249.81;5300555;27;20006;-83
2022/03/16 08:23:44;;;;;;;;;;;;;;;6.09;100.00;102251.13;5318190;27;19912;-82
2022/03/16 08:26:14;;;;;;;;;;;;;;;6.21;100.00;102254.13;5300074;27;19912;-81
2022/03/16 08:28:45;;;;;;;;;;;;;;;6.28;100.00;102246.97;5300064;27;20304;-83
2022/03/16 08:31:17;;;;;;;;;;;;;;;6.39;100.00;102248.28;5300103;27;19958;-85
2022/03/16 08:33:48;;;;;;;;;;;;;;;6.52;100.00;102250.25;5319194;27;19912;-85
2022/03/16 08:36:18;;;;;;;;;;;;;;;6.63;100.00;102247.88;5318230;27;20417;-82
2022/03/16 08:38:49;;;;;;;;;;;;;;;6.78;100.00;102250.44;5318873;27;19912;-83
2022/03/16 08:41:19;;;;;;;;;;;;;;;6.90;100.00;102251.56;5300446;27;19912;-83
2022/03/16 08:43:49;;;;;;;;;;;;;;;7.07;100.00;102242.13;5318486;27;19911;-83
2022/03/16 08:46:19;;;;;;;;;;;;;;;7.24;100.00;102245.28;5300769;27;19916;-82
2022/03/16 08:48:50;;;;;;;;;;;;;;;7.41;100.00;102245.78;5319346;27;20391;-84
2022/03/16 08:51:20;;;;;;;;;;;;;;;7.60;100.00;102250.41;5318659;27;19979;-84
2022/03/16 08:53:50;;;;;;;;;;;;;;;7.76;100.00;102243.84;5318668;27;19939;-85
2022/03/16 08:56:21;;;;;;;;;;;;;;;7.93;100.00;102245.09;5300513;27;19919;-84
2022/03/16 08:58:52;;;;;;;;;;;;;;;8.00;100.00;102245.94;5301921;22;19924;-83
2022/03/16 09:01:22;;;;;;;;;;;;;;;8.20;100.00;102242.44;5299640;28;19942;-81
2022/03/16 09:03:53;;;;;;;;;;;;;;;8.32;100.00;102230.88;5286729;28;19912;-82
2022/03/16 09:06:23;;;;;;;;;;;;;;;8.37;100.00;102232.97;5267757;28;19900;-81
2022/03/16 09:08:54;;;;;;;;;;;;;;;8.43;100.00;102237.50;5285022;28;19916;-82
2022/03/16 09:11:24;;;;;;;;;;;;;;;8.58;100.00;102240.81;5285494;28;19912;-83
2022/03/16 09:13:55;;;;;;;;;;;;;;;8.76;100.00;102232.06;5286225;28;19920;-82
2022/03/16 09:16:27;;;;;;;;;;;;;;;8.96;100.00;102240.91;5287570;28;19962;-82
2022/03/16 09:18:57;;;;;;;;;;;;;;;9.03;100.00;102227.44;5285674;28;20003;-83
2022/03/16 09:21:27;;;;;;;;;;;;;;;9.20;100.00;102233.19;5259553;28;20289;-84
2022/03/16 09:23:59;;;;;;;;;;;;;;;9.18;100.00;102228.03;5279547;28;19939;-82
2022/03/16 09:26:30;;;;;;;;;;;;;;;9.28;100.00;102225.69;5283770;28;19912;-83
2022/03/16 09:29:00;;;;;;;;;;;;;;;9.40;100.00;102239.31;5281758;28;19934;-81
2022/03/16 09:31:31;;;;;;;;;;;;;;;9.65;100.00;102229.44;5281422;28;19916;-81
2022/03/16 09:34:01;;;;;;;;;;;;;;;9.85;100.00;102228.47;5264575;28;19994;-81
2022/03/16 09:36:32;;;;;;;;;;;;;;;9.93;100.00;102218.25;5283008;28;19919;-81
2022/03/16 09:39:03;;;;;;;;;;;;;;;10.09;100.00;102220.44;5265458;28;19965;-82
2022/03/16 09:41:33;;;;;;;;;;;;;;;10.21;100.00;102227.84;5282995;28;19912;-81
2022/03/16 09:44:04;;;;;;;;;;;;;;;10.14;100.00;102220.59;5282021;28;19937;-81
2022/03/16 09:46:36;;;;;;;;;;;;;;;10.14;100.00;102228.69;5282542;28;19998;-83
2022/03/16 09:49:07;;;;;;;;;;;;;;;10.19;100.00;102217.25;5267715;28;19911;-82
2022/03/16 09:51:38;;;;;;;;;;;;;;;10.34;100.00;102217.78;5286676;28;19916;-82
2022/03/16 09:54:08;;;;;;;;;;;;;;;10.47;100.00;102217.63;5268716;28;19975;-80
2022/03/16 09:56:38;;;;;;;;;;;;;;;10.76;100.00;102209.88;5287382;28;20291;-81
2022/03/16 09:59:10;;;;;;;;;;;;;;;10.94;100.00;102196.38;5264141;28;19916;-82
2022/03/16 10:01:43;;;;;;;;;;;;;;;11.05;100.00;102202.88;5266123;28;20317;-82
2022/03/16 10:04:26;;;;;;;;;;;;;;;11.20;100.00;102206.03;5263163;28;19912;-82
2022/03/16 10:06:58;;;;;;;;;;;;;;;11.38;100.00;102197.06;5263775;28;19912;-81
2022/03/16 10:15:10;;;;;;;;;;;;;;;11.71;100.00;102202.00;5265494;28;20314;-83
2022/03/16 10:17:46;;;;;;;;;;;;;;;11.76;100.00;102205.72;5263723;28;19920;-83
2022/03/16 10:20:20;;;;;;;;;;;;;;;11.80;100.00;102197.97;5265922;28;19924;-84
2022/03/16 10:23:01;;;;;;;;;;;;;;;11.70;100.00;102201.19;5265213;28;19912;-83
2022/03/16 10:25:33;;;;;;;;;;;;;;;11.61;100.00;102191.75;5266823;28;19924;-80
2022/03/16 10:28:10;;;;;;;;;;;;;;;11.69;100.00;102188.72;5274916;28;19909;-79
2022/03/16 10:30:54;;;;;;;;;;;;;;;11.75;100.00;102186.97;5274507;28;19904;-79
2022/03/16 10:33:24;;;;;;;;;;;;;;;11.91;100.00;102196.31;5275154;28;19920;-79
2022/03/16 10:35:55;;;;;;;;;;;;;;;11.84;100.00;102183.72;5275237;28;19924;-79
2022/03/16 10:47:14;;;;;;;;;;;;;;;12.57;100.00;102195.22;5259530;28;19948;-83
2022/03/16 10:49:45;;;;;;;;;;;;;;;12.59;100.00;102193.09;5259469;28;20031;-83
2022/03/16 10:52:19;;;;;;;;;;;;;;;12.60;100.00;102187.44;5265156;28;19913;-83
2022/03/16 10:54:50;;;;;;;;;;;;;;;12.56;100.00;102193.56;5269581;28;19982;-83
2022/03/16 10:57:22;;;;;;;;;;;;;;;12.65;100.00;102203.81;5265235;28;20002;-81
2022/03/16 10:59:52;;;;;;;;;;;;;;;12.62;100.00;102203.44;5265654;28;20451;-81
2022/03/16 11:02:24;;;;;;;;;;;;;;;12.75;100.00;102198.59;5266687;28;19912;-83
2022/03/16 11:04:55;;;;;;;;;;;;;;;12.97;100.00;102200.69;5267234;28;19916;-81
2022/03/16 11:07:25;;;;;;;;;;;;;;;13.03;100.00;102202.44;5266808;28;19913;-82
2022/03/16 11:09:56;;;;;;;;;;;;;;;13.07;100.00;102198.19;5262880;28;19916;-82
2022/03/16 11:15:17;;;;;;;;;;;;;;;13.66;100.00;102198.81;5266474;28;19919;-81
2022/03/16 11:17:51;;;;;;;;;;;;;;;13.79;100.00;102201.22;5265536;28;19913;-83
2022/03/16 11:20:22;;;;;;;;;;;;;;;13.94;100.00;102197.94;5264093;28;19912;-82
2022/03/16 11:26:11;;;;;;;;;;;;;;;13.67;100.00;102206.72;5263637;28;19916;-84
2022/03/16 11:28:47;;;;;;;;;;;;;;;13.72;100.00;102206.81;5227687;28;19983;-78
2022/03/16 11:31:23;;;;;;;;;;;;;;;13.81;100.00;102196.38;5265597;28;19917;-80
2022/03/16 11:33:53;;;;;;;;;;;;;;;13.66;100.00;102199.63;5264888;28;19919;-82
2022/03/16 11:36:28;;;;;;;;;;;;;;;13.51;100.00;102196.66;5263520;28;19913;-83
2022/03/16 11:39:03;;;;;;;;;;;;;;;13.25;100.00;102183.66;5262149;28;19912;-81
2022/03/16 11:41:33;;;;;;;;;;;;;;;13.00;100.00;102181.22;5262788;28;20374;-80
2022/03/16 11:44:25;;;;;;;;;;;;;;;12.97;100.00;102185.25;5262569;28;19934;-83
2022/03/16 11:47:22;;;;;;;;;;;;;;;13.15;100.00;102181.53;5263364;28;19912;-83
2022/03/16 11:53:03;;;;;;;;;;;;;;;13.36;100.00;102186.31;5264546;28;19920;-80
2022/03/16 11:55:39;;;;;;;;;;;;;;;13.53;100.00;102178.25;5267176;28;19967;-80
2022/03/16 11:58:16;;;;;;;;;;;;;;;13.67;100.00;102181.47;5267314;28;19916;-81
2022/03/16 12:00:48;;;;;;;;;;;;;;;13.55;100.00;102180.72;5266319;28;19912;-83
2022/03/16 12:03:21;;;;;;;;;;;;;;;13.58;100.00;102167.44;5266076;28;19924;-83
2022/03/16 12:05:58;;;;;;;;;;;;;;;13.58;100.00;102181.03;5265352;28;19935;-82
2022/03/16 12:08:32;;;;;;;;;;;;;;;13.60;100.00;102168.03;5266742;28;19919;-84
2022/03/16 12:13:54;;;;;;;;;;;;;;;13.62;100.00;102160.47;5266339;28;19935;-82
2022/03/16 12:16:25;;;;;;;;;;;;;;;13.47;100.00;102165.63;5265820;28;19917;-79
2022/03/16 12:18:55;;;;;;;;;;;;;;;13.38;100.00;102153.53;5266500;28;19935;-81
2022/03/16 12:21:30;;;;;;;;;;;;;;;13.47;100.00;102147.47;5266196;28;19912;-82
2022/03/16 12:25:08;;;;;;;;;;;;;;;13.47;100.00;102152.91;5265790;28;19913;-81
2022/03/16 12:29:57;;;;;;;;;;;;;;;13.63;100.00;102153.16;5229170;28;19976;-81
2022/03/16 12:32:32;;;;;;;;;;;;;;;13.65;100.00;102145.59;5265107;28;19916;-79
2022/03/16 12:35:03;;;;;;;;;;;;;;;13.74;100.00;102152.28;5266044;28;19913;-79
2022/03/16 12:37:46;;;;;;;;;;;;;;;13.91;100.00;102141.41;5265742;28;19970;-82
2022/03/16 12:40:20;;;;;;;;;;;;;;;13.85;100.00;102143.25;5265633;28;19940;-81
2022/03/16 12:42:55;;;;;;;;;;;;;;;13.71;100.00;102136.47;5266002;28;19912;-82
2022/03/16 12:45:28;;;;;;;;;;;;;;;13.68;100.00;102129.63;5265356;28;19912;-80
2022/03/16 12:48:10;;;;;;;;;;;;;;;13.62;100.00;102127.06;5263945;28;19913;-82
2022/03/16 12:50:47;;;;;;;;;;;;;;;13.64;100.00;102124.94;5262940;28;19916;-82
2022/03/16 12:53:44;;;;;;;;;;;;;;;13.61;100.00;102126.25;5265079;28;19912;-79
2022/03/16 12:56:17;;;;;;;;;;;;;;;13.66;100.00;102122.81;5265171;28;19988;-81
2022/03/16 12:58:52;;;;;;;;;;;;;;;13.70;100.00;102116.66;5263242;28;19916;-84
2022/03/16 13:01:23;;;;;;;;;;;;;;;13.74;100.00;102108.84;5264170;28;19916;-79
2022/03/16 13:04:04;;;;;;;;;;;;;;;13.79;100.00;102100.78;5262339;28;20466;-83
2022/03/16 13:06:34;;;;;;;;;;;;;;;13.76;100.00;102118.38;5263808;28;20395;-83
2022/03/16 13:09:09;;;;;;;;;;;;;;;13.64;100.00;102104.06;5262831;28;19980;-80
2022/03/16 13:11:40;;;;;;;;;;;;;;;13.76;100.00;102102.09;5263574;28;19960;-81
2022/03/16 13:14:16;;;;;;;;;;;;;;;13.89;100.00;102095.50;5263298;28;19938;-84
2022/03/16 13:16:47;;;;;;;;;;;;;;;13.93;100.00;102093.09;5263252;28;19934;-81
2022/03/16 13:19:24;;;;;;;;;;;;;;;13.83;100.00;102081.03;5260732;28;19917;-81
2022/03/16 13:22:05;;;;;;;;;;;;;;;13.76;100.00;102074.94;5261313;28;19919;-82
2022/03/16 13:24:36;;;;;;;;;;;;;;;13.72;100.00;102068.34;5262510;28;19923;-82
2022/03/16 13:27:08;;;;;;;;;;;;;;;13.83;100.00;102063.91;5260590;28;19900;-82